sensor_id;sensor_type;location;lat;lon;timestamp;P1;durP1;ratioP1;P2;durP2;ratioP2
37971;SDS011;23794;48.234;8.344;2024-03-08T00:00:37;45.53;;;26.10;;
37971;SDS011;23794;48.234;8.344;2024-03-08T00:03:04;44.33;;;25.70;;
37971;SDS011;23794;48.234;8.344;2024-03-08T00:05:31;42.28;;;25.00;;
37971;SDS011;23794;48.234;8.344;2024-03-08T00:07:58;48.00;;;27.95;;
37971;SDS011;23794;48.234;8.344;2024-03-08T00:10:26;52.20;;;27.67;;
37971;SDS011;23794;48.234;8.344;2024-03-08T00:12:55;49.15;;;27.48;;
37971;SDS011;23794;48.234;8.344;2024-03-08T00:15:21;38.65;;;24.98;;
37971;SDS011;23794;48.234;8.344;2024-03-08T00:17:49;37.63;;;23.00;;
37971;SDS011;23794;48.234;8.344;2024-03-08T00:20:16;39.22;;;23.73;;
37971;SDS011;23794;48.234;8.344;2024-03-08T00:22:46;40.22;;;23.83;;
37971;SDS011;23794;48.234;8.344;2024-03-08T00:25:13;45.00;;;26.83;;
37971;SDS011;23794;48.234;8.344;2024-03-08T00:27:39;36.85;;;22.75;;
37971;SDS011;23794;48.234;8.344;2024-03-08T00:30:07;39.70;;;23.90;;
37971;SDS011;23794;48.234;8.344;2024-03-08T00:32:34;38.90;;;22.48;;
37971;SDS011;23794;48.234;8.344;2024-03-08T00:35:02;34.30;;;21.17;;
37971;SDS011;23794;48.234;8.344;2024-03-08T00:37:29;43.78;;;25.95;;
37971;SDS011;23794;48.234;8.344;2024-03-08T00:39:56;45.75;;;26.23;;
37971;SDS011;23794;48.234;8.344;2024-03-08T00:42:22;50.90;;;28.20;;
37971;SDS011;23794;48.234;8.344;2024-03-08T00:44:50;47.55;;;25.33;;
37971;SDS011;23794;48.234;8.344;2024-03-08T00:47:18;38.25;;;21.75;;
37971;SDS011;23794;48.234;8.344;2024-03-08T00:49:45;35.30;;;21.90;;
37971;SDS011;23794;48.234;8.344;2024-03-08T00:52:12;35.55;;;21.73;;
37971;SDS011;23794;48.234;8.344;2024-03-08T00:54:39;37.10;;;21.45;;
37971;SDS011;23794;48.234;8.344;2024-03-08T00:57:06;44.15;;;23.85;;
37971;SDS011;23794;48.234;8.344;2024-03-08T00:59:33;42.88;;;21.77;;
37971;SDS011;23794;48.234;8.344;2024-03-08T01:02:00;35.53;;;21.33;;
37971;SDS011;23794;48.234;8.344;2024-03-08T01:04:28;37.80;;;22.17;;
37971;SDS011;23794;48.234;8.344;2024-03-08T01:06:59;36.85;;;21.23;;
37971;SDS011;23794;48.234;8.344;2024-03-08T01:09:26;41.53;;;25.23;;
37971;SDS011;23794;48.234;8.344;2024-03-08T01:11:54;52.55;;;27.75;;
37971;SDS011;23794;48.234;8.344;2024-03-08T01:14:21;34.65;;;21.42;;
37971;SDS011;23794;48.234;8.344;2024-03-08T01:16:49;64.40;;;29.38;;
37971;SDS011;23794;48.234;8.344;2024-03-08T01:19:16;35.55;;;20.85;;
37971;SDS011;23794;48.234;8.344;2024-03-08T01:21:43;36.72;;;20.10;;
37971;SDS011;23794;48.234;8.344;2024-03-08T01:24:10;36.03;;;21.88;;
37971;SDS011;23794;48.234;8.344;2024-03-08T01:26:37;45.22;;;24.58;;
37971;SDS011;23794;48.234;8.344;2024-03-08T01:29:03;29.85;;;18.15;;
37971;SDS011;23794;48.234;8.344;2024-03-08T01:31:30;32.95;;;20.85;;
37971;SDS011;23794;48.234;8.344;2024-03-08T01:34:00;33.42;;;19.67;;
37971;SDS011;23794;48.234;8.344;2024-03-08T01:36:27;36.17;;;19.63;;
37971;SDS011;23794;48.234;8.344;2024-03-08T01:38:53;30.05;;;18.50;;
37971;SDS011;23794;48.234;8.344;2024-03-08T01:41:20;27.35;;;18.08;;
37971;SDS011;23794;48.234;8.344;2024-03-08T01:43:47;38.40;;;22.38;;
37971;SDS011;23794;48.234;8.344;2024-03-08T01:46:15;38.13;;;22.00;;
37971;SDS011;23794;48.234;8.344;2024-03-08T01:48:45;29.63;;;18.90;;
37971;SDS011;23794;48.234;8.344;2024-03-08T01:51:12;35.13;;;21.38;;
37971;SDS011;23794;48.234;8.344;2024-03-08T01:53:42;36.20;;;21.10;;
37971;SDS011;23794;48.234;8.344;2024-03-08T01:56:12;41.97;;;24.03;;
37971;SDS011;23794;48.234;8.344;2024-03-08T01:58:40;29.70;;;18.63;;
37971;SDS011;23794;48.234;8.344;2024-03-08T02:01:11;41.15;;;23.58;;
37971;SDS011;23794;48.234;8.344;2024-03-08T02:03:41;31.25;;;18.75;;
37971;SDS011;23794;48.234;8.344;2024-03-08T02:06:13;29.10;;;17.90;;
37971;SDS011;23794;48.234;8.344;2024-03-08T02:08:43;35.35;;;21.30;;
37971;SDS011;23794;48.234;8.344;2024-03-08T02:11:11;47.53;;;24.23;;
37971;SDS011;23794;48.234;8.344;2024-03-08T02:13:38;38.08;;;22.33;;
37971;SDS011;23794;48.234;8.344;2024-03-08T02:16:05;44.58;;;24.25;;
37971;SDS011;23794;48.234;8.344;2024-03-08T02:18:34;37.63;;;21.75;;
37971;SDS011;23794;48.234;8.344;2024-03-08T02:21:02;38.60;;;22.17;;
37971;SDS011;23794;48.234;8.344;2024-03-08T02:23:30;29.83;;;18.08;;
37971;SDS011;23794;48.234;8.344;2024-03-08T02:25:57;30.42;;;19.08;;
37971;SDS011;23794;48.234;8.344;2024-03-08T02:28:23;35.90;;;21.67;;
37971;SDS011;23794;48.234;8.344;2024-03-08T02:30:51;36.17;;;21.27;;
37971;SDS011;23794;48.234;8.344;2024-03-08T02:33:22;29.33;;;17.98;;
37971;SDS011;23794;48.234;8.344;2024-03-08T02:35:50;36.10;;;21.30;;
37971;SDS011;23794;48.234;8.344;2024-03-08T02:38:18;37.58;;;21.45;;
37971;SDS011;23794;48.234;8.344;2024-03-08T02:40:46;43.55;;;23.70;;
37971;SDS011;23794;48.234;8.344;2024-03-08T02:43:14;37.63;;;20.83;;
37971;SDS011;23794;48.234;8.344;2024-03-08T02:45:42;38.85;;;22.58;;
37971;SDS011;23794;48.234;8.344;2024-03-08T02:48:08;35.70;;;21.42;;
37971;SDS011;23794;48.234;8.344;2024-03-08T02:50:35;28.05;;;17.45;;
37971;SDS011;23794;48.234;8.344;2024-03-08T02:53:03;27.05;;;17.63;;
37971;SDS011;23794;48.234;8.344;2024-03-08T02:55:30;29.75;;;18.88;;
37971;SDS011;23794;48.234;8.344;2024-03-08T02:57:56;31.58;;;18.50;;
37971;SDS011;23794;48.234;8.344;2024-03-08T03:00:23;28.77;;;18.17;;
37971;SDS011;23794;48.234;8.344;2024-03-08T03:02:50;36.85;;;21.17;;
37971;SDS011;23794;48.234;8.344;2024-03-08T03:05:20;27.35;;;17.17;;
37971;SDS011;23794;48.234;8.344;2024-03-08T03:07:47;28.65;;;17.42;;
37971;SDS011;23794;48.234;8.344;2024-03-08T03:10:16;25.92;;;16.17;;
37971;SDS011;23794;48.234;8.344;2024-03-08T03:12:43;25.20;;;16.45;;
37971;SDS011;23794;48.234;8.344;2024-03-08T03:15:12;27.08;;;16.75;;
37971;SDS011;23794;48.234;8.344;2024-03-08T03:17:40;26.05;;;17.15;;
37971;SDS011;23794;48.234;8.344;2024-03-08T03:20:07;27.58;;;16.90;;
37971;SDS011;23794;48.234;8.344;2024-03-08T03:22:42;26.23;;;16.17;;
37971;SDS011;23794;48.234;8.344;2024-03-08T03:27:38;26.30;;;16.65;;
37971;SDS011;23794;48.234;8.344;2024-03-08T03:30:06;28.85;;;15.95;;
37971;SDS011;23794;48.234;8.344;2024-03-08T03:32:49;24.02;;;14.48;;
37971;SDS011;23794;48.234;8.344;2024-03-08T03:35:17;29.17;;;17.15;;
37971;SDS011;23794;48.234;8.344;2024-03-08T03:37:47;25.08;;;16.45;;
37971;SDS011;23794;48.234;8.344;2024-03-08T03:40:34;27.25;;;16.52;;
37971;SDS011;23794;48.234;8.344;2024-03-08T03:43:01;22.35;;;14.75;;
37971;SDS011;23794;48.234;8.344;2024-03-08T03:45:29;25.25;;;16.00;;
37971;SDS011;23794;48.234;8.344;2024-03-08T03:48:03;27.23;;;16.67;;
37971;SDS011;23794;48.234;8.344;2024-03-08T03:50:31;26.77;;;17.67;;
37971;SDS011;23794;48.234;8.344;2024-03-08T03:53:01;28.50;;;16.48;;
37971;SDS011;23794;48.234;8.344;2024-03-08T03:55:29;27.63;;;16.55;;
37971;SDS011;23794;48.234;8.344;2024-03-08T03:57:55;26.73;;;16.55;;
37971;SDS011;23794;48.234;8.344;2024-03-08T04:00:22;24.95;;;14.95;;
37971;SDS011;23794;48.234;8.344;2024-03-08T04:02:48;26.73;;;16.77;;
37971;SDS011;23794;48.234;8.344;2024-03-08T04:05:16;27.35;;;16.15;;
37971;SDS011;23794;48.234;8.344;2024-03-08T04:07:43;27.10;;;16.98;;
37971;SDS011;23794;48.234;8.344;2024-03-08T04:10:11;29.23;;;17.13;;
37971;SDS011;23794;48.234;8.344;2024-03-08T04:12:37;31.33;;;18.63;;
37971;SDS011;23794;48.234;8.344;2024-03-08T04:15:04;24.75;;;15.35;;
37971;SDS011;23794;48.234;8.344;2024-03-08T04:17:34;24.35;;;15.50;;
37971;SDS011;23794;48.234;8.344;2024-03-08T04:20:04;28.77;;;17.52;;
37971;SDS011;23794;48.234;8.344;2024-03-08T04:25:03;28.40;;;15.98;;
37971;SDS011;23794;48.234;8.344;2024-03-08T04:27:30;25.23;;;16.33;;
37971;SDS011;23794;48.234;8.344;2024-03-08T04:29:56;27.60;;;15.93;;
37971;SDS011;23794;48.234;8.344;2024-03-08T04:32:23;26.38;;;15.60;;
37971;SDS011;23794;48.234;8.344;2024-03-08T04:34:50;25.20;;;15.93;;
37971;SDS011;23794;48.234;8.344;2024-03-08T04:37:16;29.48;;;18.13;;
37971;SDS011;23794;48.234;8.344;2024-03-08T04:39:49;32.45;;;17.88;;
37971;SDS011;23794;48.234;8.344;2024-03-08T04:42:16;29.02;;;17.13;;
37971;SDS011;23794;48.234;8.344;2024-03-08T04:44:44;26.52;;;16.13;;
37971;SDS011;23794;48.234;8.344;2024-03-08T04:47:11;30.58;;;18.13;;
37971;SDS011;23794;48.234;8.344;2024-03-08T04:49:38;28.25;;;17.00;;
37971;SDS011;23794;48.234;8.344;2024-03-08T04:52:05;27.10;;;16.88;;
37971;SDS011;23794;48.234;8.344;2024-03-08T04:54:33;32.53;;;18.90;;
37971;SDS011;23794;48.234;8.344;2024-03-08T04:57:00;32.78;;;19.27;;
37971;SDS011;23794;48.234;8.344;2024-03-08T04:59:29;27.50;;;17.00;;
37971;SDS011;23794;48.234;8.344;2024-03-08T05:01:56;27.38;;;16.58;;
37971;SDS011;23794;48.234;8.344;2024-03-08T05:04:23;28.02;;;16.90;;
37971;SDS011;23794;48.234;8.344;2024-03-08T05:06:49;31.63;;;19.15;;
37971;SDS011;23794;48.234;8.344;2024-03-08T05:09:16;26.52;;;15.95;;
37971;SDS011;23794;48.234;8.344;2024-03-08T05:11:44;33.15;;;17.95;;
37971;SDS011;23794;48.234;8.344;2024-03-08T05:14:11;27.77;;;15.93;;
37971;SDS011;23794;48.234;8.344;2024-03-08T05:16:47;30.98;;;17.90;;
37971;SDS011;23794;48.234;8.344;2024-03-08T05:19:16;28.73;;;16.48;;
37971;SDS011;23794;48.234;8.344;2024-03-08T05:21:44;24.90;;;15.40;;
37971;SDS011;23794;48.234;8.344;2024-03-08T05:24:14;27.25;;;16.42;;
37971;SDS011;23794;48.234;8.344;2024-03-08T05:26:43;25.58;;;16.38;;
37971;SDS011;23794;48.234;8.344;2024-03-08T05:29:10;27.35;;;15.90;;
37971;SDS011;23794;48.234;8.344;2024-03-08T05:31:50;30.73;;;16.63;;
37971;SDS011;23794;48.234;8.344;2024-03-08T05:34:21;30.60;;;18.60;;
37971;SDS011;23794;48.234;8.344;2024-03-08T05:36:48;27.15;;;16.85;;
37971;SDS011;23794;48.234;8.344;2024-03-08T05:39:18;30.50;;;18.42;;
37971;SDS011;23794;48.234;8.344;2024-03-08T05:41:46;30.30;;;18.15;;
37971;SDS011;23794;48.234;8.344;2024-03-08T05:44:13;24.40;;;16.10;;
37971;SDS011;23794;48.234;8.344;2024-03-08T05:46:40;29.70;;;17.40;;
37971;SDS011;23794;48.234;8.344;2024-03-08T05:49:07;28.20;;;17.48;;
37971;SDS011;23794;48.234;8.344;2024-03-08T05:51:37;25.73;;;15.52;;
37971;SDS011;23794;48.234;8.344;2024-03-08T05:54:09;29.15;;;17.25;;
37971;SDS011;23794;48.234;8.344;2024-03-08T05:56:41;28.30;;;17.30;;
37971;SDS011;23794;48.234;8.344;2024-03-08T05:59:11;27.88;;;17.02;;
37971;SDS011;23794;48.234;8.344;2024-03-08T06:01:39;26.25;;;15.50;;
37971;SDS011;23794;48.234;8.344;2024-03-08T06:04:08;35.72;;;21.25;;
37971;SDS011;23794;48.234;8.344;2024-03-08T06:06:35;35.53;;;19.40;;
37971;SDS011;23794;48.234;8.344;2024-03-08T06:09:04;28.08;;;16.23;;
37971;SDS011;23794;48.234;8.344;2024-03-08T06:11:38;33.28;;;17.70;;
37971;SDS011;23794;48.234;8.344;2024-03-08T06:14:04;33.00;;;19.13;;
37971;SDS011;23794;48.234;8.344;2024-03-08T06:16:32;34.88;;;19.52;;
37971;SDS011;23794;48.234;8.344;2024-03-08T06:19:00;31.05;;;18.88;;
37971;SDS011;23794;48.234;8.344;2024-03-08T06:21:28;30.67;;;18.55;;
37971;SDS011;23794;48.234;8.344;2024-03-08T06:23:55;29.60;;;17.17;;
37971;SDS011;23794;48.234;8.344;2024-03-08T06:26:24;36.03;;;19.30;;
37971;SDS011;23794;48.234;8.344;2024-03-08T06:28:55;27.65;;;16.45;;
37971;SDS011;23794;48.234;8.344;2024-03-08T06:31:22;27.48;;;18.02;;
37971;SDS011;23794;48.234;8.344;2024-03-08T06:33:49;31.00;;;17.95;;
37971;SDS011;23794;48.234;8.344;2024-03-08T06:36:16;31.85;;;17.58;;
37971;SDS011;23794;48.234;8.344;2024-03-08T06:38:45;27.77;;;15.82;;
37971;SDS011;23794;48.234;8.344;2024-03-08T06:41:12;30.83;;;17.50;;
37971;SDS011;23794;48.234;8.344;2024-03-08T06:43:42;33.63;;;17.80;;
37971;SDS011;23794;48.234;8.344;2024-03-08T06:46:09;32.33;;;18.52;;
37971;SDS011;23794;48.234;8.344;2024-03-08T06:48:37;35.05;;;19.67;;
37971;SDS011;23794;48.234;8.344;2024-03-08T06:51:04;33.42;;;17.98;;
37971;SDS011;23794;48.234;8.344;2024-03-08T06:53:31;33.80;;;17.25;;
37971;SDS011;23794;48.234;8.344;2024-03-08T06:55:58;33.10;;;19.30;;
37971;SDS011;23794;48.234;8.344;2024-03-08T06:58:25;38.17;;;20.63;;
37971;SDS011;23794;48.234;8.344;2024-03-08T07:00:51;30.63;;;17.27;;
37971;SDS011;23794;48.234;8.344;2024-03-08T07:03:18;30.40;;;18.35;;
37971;SDS011;23794;48.234;8.344;2024-03-08T07:05:45;31.65;;;17.55;;
37971;SDS011;23794;48.234;8.344;2024-03-08T07:08:12;31.50;;;18.63;;
37971;SDS011;23794;48.234;8.344;2024-03-08T07:10:40;29.38;;;16.75;;
37971;SDS011;23794;48.234;8.344;2024-03-08T07:13:11;28.90;;;17.45;;
37971;SDS011;23794;48.234;8.344;2024-03-08T07:15:38;31.42;;;17.83;;
37971;SDS011;23794;48.234;8.344;2024-03-08T07:18:04;31.80;;;17.75;;
37971;SDS011;23794;48.234;8.344;2024-03-08T07:20:31;28.17;;;17.70;;
37971;SDS011;23794;48.234;8.344;2024-03-08T07:22:58;32.60;;;17.80;;
37971;SDS011;23794;48.234;8.344;2024-03-08T07:25:24;29.60;;;17.23;;
37971;SDS011;23794;48.234;8.344;2024-03-08T07:27:55;27.95;;;16.30;;
37971;SDS011;23794;48.234;8.344;2024-03-08T07:30:24;32.30;;;17.60;;
37971;SDS011;23794;48.234;8.344;2024-03-08T07:33:10;29.33;;;17.50;;
37971;SDS011;23794;48.234;8.344;2024-03-08T07:35:41;28.70;;;16.60;;
37971;SDS011;23794;48.234;8.344;2024-03-08T07:38:11;28.02;;;16.42;;
37971;SDS011;23794;48.234;8.344;2024-03-08T07:40:38;30.83;;;18.08;;
37971;SDS011;23794;48.234;8.344;2024-03-08T07:43:12;26.20;;;14.38;;
37971;SDS011;23794;48.234;8.344;2024-03-08T07:45:40;30.83;;;17.15;;
37971;SDS011;23794;48.234;8.344;2024-03-08T07:48:06;26.88;;;16.40;;
37971;SDS011;23794;48.234;8.344;2024-03-08T07:50:37;28.10;;;16.42;;
37971;SDS011;23794;48.234;8.344;2024-03-08T07:53:06;27.08;;;17.00;;
37971;SDS011;23794;48.234;8.344;2024-03-08T07:55:33;24.63;;;14.65;;
37971;SDS011;23794;48.234;8.344;2024-03-08T07:58:01;28.33;;;17.02;;
37971;SDS011;23794;48.234;8.344;2024-03-08T08:00:32;28.08;;;16.55;;
37971;SDS011;23794;48.234;8.344;2024-03-08T08:02:58;30.80;;;18.52;;
37971;SDS011;23794;48.234;8.344;2024-03-08T08:05:25;25.88;;;14.68;;
37971;SDS011;23794;48.234;8.344;2024-03-08T08:07:53;30.92;;;17.10;;
37971;SDS011;23794;48.234;8.344;2024-03-08T08:10:20;28.80;;;16.98;;
37971;SDS011;23794;48.234;8.344;2024-03-08T08:12:52;29.17;;;17.10;;
37971;SDS011;23794;48.234;8.344;2024-03-08T08:15:19;26.63;;;16.10;;
37971;SDS011;23794;48.234;8.344;2024-03-08T08:17:46;28.58;;;16.13;;
37971;SDS011;23794;48.234;8.344;2024-03-08T08:20:13;29.95;;;16.35;;
37971;SDS011;23794;48.234;8.344;2024-03-08T08:22:40;29.17;;;14.73;;
37971;SDS011;23794;48.234;8.344;2024-03-08T08:25:07;25.58;;;14.60;;
37971;SDS011;23794;48.234;8.344;2024-03-08T08:27:34;27.70;;;16.08;;
37971;SDS011;23794;48.234;8.344;2024-03-08T08:30:03;26.10;;;15.43;;
37971;SDS011;23794;48.234;8.344;2024-03-08T08:32:34;29.17;;;16.83;;
37971;SDS011;23794;48.234;8.344;2024-03-08T08:35:05;24.52;;;14.30;;
37971;SDS011;23794;48.234;8.344;2024-03-08T08:37:32;28.63;;;16.33;;
37971;SDS011;23794;48.234;8.344;2024-03-08T08:40:00;26.23;;;16.73;;
37971;SDS011;23794;48.234;8.344;2024-03-08T08:42:31;25.20;;;14.88;;
37971;SDS011;23794;48.234;8.344;2024-03-08T08:44:58;23.77;;;13.60;;
37971;SDS011;23794;48.234;8.344;2024-03-08T08:47:34;21.88;;;12.57;;
37971;SDS011;23794;48.234;8.344;2024-03-08T08:50:02;22.48;;;12.70;;
37971;SDS011;23794;48.234;8.344;2024-03-08T08:52:31;21.33;;;12.80;;
37971;SDS011;23794;48.234;8.344;2024-03-08T08:54:58;21.00;;;12.65;;
37971;SDS011;23794;48.234;8.344;2024-03-08T08:57:25;24.15;;;13.35;;
37971;SDS011;23794;48.234;8.344;2024-03-08T08:59:53;27.98;;;13.48;;
37971;SDS011;23794;48.234;8.344;2024-03-08T09:02:20;22.33;;;12.93;;
37971;SDS011;23794;48.234;8.344;2024-03-08T09:04:47;23.08;;;13.18;;
37971;SDS011;23794;48.234;8.344;2024-03-08T09:07:17;28.80;;;13.88;;
37971;SDS011;23794;48.234;8.344;2024-03-08T09:09:45;24.20;;;12.18;;
37971;SDS011;23794;48.234;8.344;2024-03-08T09:12:12;24.92;;;11.45;;
37971;SDS011;23794;48.234;8.344;2024-03-08T09:14:42;23.90;;;13.55;;
37971;SDS011;23794;48.234;8.344;2024-03-08T09:17:09;20.75;;;11.60;;
37971;SDS011;23794;48.234;8.344;2024-03-08T09:19:35;22.58;;;12.07;;
37971;SDS011;23794;48.234;8.344;2024-03-08T09:22:03;25.60;;;13.43;;
37971;SDS011;23794;48.234;8.344;2024-03-08T09:24:30;26.08;;;13.93;;
37971;SDS011;23794;48.234;8.344;2024-03-08T09:26:57;24.52;;;13.23;;
37971;SDS011;23794;48.234;8.344;2024-03-08T09:29:27;21.88;;;11.90;;
37971;SDS011;23794;48.234;8.344;2024-03-08T09:31:54;26.10;;;13.20;;
37971;SDS011;23794;48.234;8.344;2024-03-08T09:34:22;23.73;;;13.70;;
37971;SDS011;23794;48.234;8.344;2024-03-08T09:36:57;22.50;;;12.10;;
37971;SDS011;23794;48.234;8.344;2024-03-08T09:39:24;24.70;;;14.00;;
37971;SDS011;23794;48.234;8.344;2024-03-08T09:41:53;23.92;;;13.60;;
37971;SDS011;23794;48.234;8.344;2024-03-08T09:44:22;22.50;;;13.60;;
37971;SDS011;23794;48.234;8.344;2024-03-08T09:46:53;24.90;;;13.23;;
37971;SDS011;23794;48.234;8.344;2024-03-08T09:49:20;24.05;;;13.10;;
37971;SDS011;23794;48.234;8.344;2024-03-08T09:51:46;23.00;;;13.07;;
37971;SDS011;23794;48.234;8.344;2024-03-08T09:54:15;24.42;;;14.52;;
37971;SDS011;23794;48.234;8.344;2024-03-08T09:56:49;22.20;;;13.32;;
37971;SDS011;23794;48.234;8.344;2024-03-08T09:59:17;23.75;;;11.93;;
37971;SDS011;23794;48.234;8.344;2024-03-08T10:01:49;25.02;;;12.57;;
37971;SDS011;23794;48.234;8.344;2024-03-08T10:04:18;19.17;;;12.30;;
37971;SDS011;23794;48.234;8.344;2024-03-08T10:06:46;25.40;;;15.27;;
37971;SDS011;23794;48.234;8.344;2024-03-08T10:09:13;19.13;;;12.23;;
37971;SDS011;23794;48.234;8.344;2024-03-08T10:11:40;23.60;;;12.75;;
37971;SDS011;23794;48.234;8.344;2024-03-08T10:14:07;22.60;;;13.80;;
37971;SDS011;23794;48.234;8.344;2024-03-08T10:16:35;23.10;;;13.65;;
37971;SDS011;23794;48.234;8.344;2024-03-08T10:19:02;20.65;;;12.50;;
37971;SDS011;23794;48.234;8.344;2024-03-08T10:21:29;22.33;;;13.18;;
37971;SDS011;23794;48.234;8.344;2024-03-08T10:23:56;20.63;;;12.85;;
37971;SDS011;23794;48.234;8.344;2024-03-08T10:26:22;21.08;;;13.82;;
37971;SDS011;23794;48.234;8.344;2024-03-08T10:28:50;26.25;;;15.25;;
37971;SDS011;23794;48.234;8.344;2024-03-08T10:31:19;22.80;;;12.98;;
37971;SDS011;23794;48.234;8.344;2024-03-08T10:33:46;20.70;;;12.77;;
37971;SDS011;23794;48.234;8.344;2024-03-08T10:36:14;26.38;;;12.27;;
37971;SDS011;23794;48.234;8.344;2024-03-08T10:38:41;23.25;;;12.05;;
37971;SDS011;23794;48.234;8.344;2024-03-08T10:41:10;20.45;;;11.85;;
37971;SDS011;23794;48.234;8.344;2024-03-08T10:46:32;20.38;;;12.25;;
37971;SDS011;23794;48.234;8.344;2024-03-08T10:49:04;21.80;;;13.18;;
37971;SDS011;23794;48.234;8.344;2024-03-08T10:51:34;20.52;;;12.13;;
37971;SDS011;23794;48.234;8.344;2024-03-08T10:54:04;19.45;;;11.88;;
37971;SDS011;23794;48.234;8.344;2024-03-08T10:56:33;18.52;;;12.40;;
37971;SDS011;23794;48.234;8.344;2024-03-08T10:59:00;22.08;;;12.77;;
37971;SDS011;23794;48.234;8.344;2024-03-08T11:01:27;21.85;;;12.75;;
37971;SDS011;23794;48.234;8.344;2024-03-08T11:03:53;18.63;;;12.30;;
37971;SDS011;23794;48.234;8.344;2024-03-08T11:06:29;22.05;;;13.32;;
37971;SDS011;23794;48.234;8.344;2024-03-08T11:08:57;22.23;;;13.38;;
37971;SDS011;23794;48.234;8.344;2024-03-08T11:11:25;22.00;;;13.02;;
37971;SDS011;23794;48.234;8.344;2024-03-08T11:14:00;20.08;;;11.88;;
37971;SDS011;23794;48.234;8.344;2024-03-08T11:18:58;21.67;;;12.45;;
37971;SDS011;23794;48.234;8.344;2024-03-08T11:21:32;19.73;;;12.40;;
37971;SDS011;23794;48.234;8.344;2024-03-08T11:26:34;19.13;;;11.98;;
37971;SDS011;23794;48.234;8.344;2024-03-08T11:32:09;18.33;;;10.80;;
37971;SDS011;23794;48.234;8.344;2024-03-08T11:34:37;20.35;;;11.43;;
37971;SDS011;23794;48.234;8.344;2024-03-08T11:37:10;18.70;;;11.55;;
37971;SDS011;23794;48.234;8.344;2024-03-08T11:39:39;17.75;;;11.38;;
37971;SDS011;23794;48.234;8.344;2024-03-08T11:42:06;17.73;;;11.45;;
37971;SDS011;23794;48.234;8.344;2024-03-08T11:44:33;19.63;;;11.93;;
37971;SDS011;23794;48.234;8.344;2024-03-08T11:47:00;18.13;;;12.30;;
37971;SDS011;23794;48.234;8.344;2024-03-08T11:49:26;18.50;;;11.88;;
37971;SDS011;23794;48.234;8.344;2024-03-08T11:51:54;17.95;;;10.65;;
37971;SDS011;23794;48.234;8.344;2024-03-08T11:54:21;16.75;;;11.23;;
37971;SDS011;23794;48.234;8.344;2024-03-08T11:56:51;21.70;;;12.43;;
37971;SDS011;23794;48.234;8.344;2024-03-08T11:59:18;15.40;;;11.27;;
37971;SDS011;23794;48.234;8.344;2024-03-08T12:01:56;17.15;;;10.68;;
37971;SDS011;23794;48.234;8.344;2024-03-08T12:04:28;16.70;;;10.65;;
37971;SDS011;23794;48.234;8.344;2024-03-08T12:06:55;17.38;;;11.75;;
37971;SDS011;23794;48.234;8.344;2024-03-08T12:09:21;18.95;;;11.45;;
37971;SDS011;23794;48.234;8.344;2024-03-08T12:11:48;17.73;;;12.57;;
37971;SDS011;23794;48.234;8.344;2024-03-08T12:14:17;16.05;;;11.02;;
37971;SDS011;23794;48.234;8.344;2024-03-08T12:16:44;15.68;;;10.82;;
37971;SDS011;23794;48.234;8.344;2024-03-08T12:19:11;14.40;;;10.48;;
37971;SDS011;23794;48.234;8.344;2024-03-08T12:21:38;14.85;;;10.40;;
37971;SDS011;23794;48.234;8.344;2024-03-08T12:24:13;16.50;;;10.70;;
37971;SDS011;23794;48.234;8.344;2024-03-08T12:26:42;15.90;;;10.98;;
37971;SDS011;23794;48.234;8.344;2024-03-08T12:29:19;15.13;;;9.40;;
37971;SDS011;23794;48.234;8.344;2024-03-08T12:31:52;16.25;;;10.88;;
37971;SDS011;23794;48.234;8.344;2024-03-08T12:34:26;15.93;;;10.88;;
37971;SDS011;23794;48.234;8.344;2024-03-08T12:37:05;12.88;;;9.63;;
37971;SDS011;23794;48.234;8.344;2024-03-08T12:39:34;13.23;;;9.15;;
37971;SDS011;23794;48.234;8.344;2024-03-08T12:42:01;10.80;;;7.47;;
37971;SDS011;23794;48.234;8.344;2024-03-08T12:44:29;12.85;;;8.70;;
37971;SDS011;23794;48.234;8.344;2024-03-08T12:46:57;13.63;;;9.15;;
37971;SDS011;23794;48.234;8.344;2024-03-08T12:49:26;12.90;;;9.02;;
37971;SDS011;23794;48.234;8.344;2024-03-08T12:52:00;11.15;;;8.52;;
37971;SDS011;23794;48.234;8.344;2024-03-08T12:54:27;12.25;;;9.48;;
37971;SDS011;23794;48.234;8.344;2024-03-08T12:56:58;13.13;;;9.68;;
37971;SDS011;23794;48.234;8.344;2024-03-08T12:59:31;15.95;;;9.25;;
37971;SDS011;23794;48.234;8.344;2024-03-08T13:02:00;11.52;;;8.95;;
37971;SDS011;23794;48.234;8.344;2024-03-08T13:04:28;11.57;;;7.90;;
37971;SDS011;23794;48.234;8.344;2024-03-08T13:06:58;12.90;;;9.32;;
37971;SDS011;23794;48.234;8.344;2024-03-08T13:09:25;12.55;;;9.27;;
37971;SDS011;23794;48.234;8.344;2024-03-08T13:11:54;11.85;;;9.27;;
37971;SDS011;23794;48.234;8.344;2024-03-08T13:14:30;12.52;;;8.13;;
37971;SDS011;23794;48.234;8.344;2024-03-08T13:17:00;13.23;;;9.18;;
37971;SDS011;23794;48.234;8.344;2024-03-08T13:19:31;11.05;;;8.70;;
37971;SDS011;23794;48.234;8.344;2024-03-08T13:22:01;10.93;;;8.63;;
37971;SDS011;23794;48.234;8.344;2024-03-08T13:24:33;12.13;;;8.13;;
37971;SDS011;23794;48.234;8.344;2024-03-08T13:27:00;12.80;;;8.57;;
37971;SDS011;23794;48.234;8.344;2024-03-08T13:29:27;10.85;;;8.05;;
37971;SDS011;23794;48.234;8.344;2024-03-08T13:31:54;10.73;;;7.88;;
37971;SDS011;23794;48.234;8.344;2024-03-08T13:34:23;13.98;;;8.48;;
37971;SDS011;23794;48.234;8.344;2024-03-08T13:36:56;10.95;;;8.23;;
37971;SDS011;23794;48.234;8.344;2024-03-08T13:39:27;10.68;;;7.82;;
37971;SDS011;23794;48.234;8.344;2024-03-08T13:41:59;9.48;;;7.38;;
37971;SDS011;23794;48.234;8.344;2024-03-08T13:44:33;9.45;;;7.32;;
37971;SDS011;23794;48.234;8.344;2024-03-08T13:47:03;10.90;;;7.10;;
37971;SDS011;23794;48.234;8.344;2024-03-08T13:49:31;10.05;;;7.57;;
37971;SDS011;23794;48.234;8.344;2024-03-08T13:52:01;9.77;;;7.32;;
37971;SDS011;23794;48.234;8.344;2024-03-08T13:54:28;9.43;;;7.55;;
37971;SDS011;23794;48.234;8.344;2024-03-08T13:57:01;9.85;;;7.97;;
37971;SDS011;23794;48.234;8.344;2024-03-08T13:59:31;8.65;;;6.80;;
37971;SDS011;23794;48.234;8.344;2024-03-08T14:02:03;8.70;;;7.13;;
37971;SDS011;23794;48.234;8.344;2024-03-08T14:04:33;8.48;;;6.82;;
37971;SDS011;23794;48.234;8.344;2024-03-08T14:07:01;12.20;;;7.93;;
37971;SDS011;23794;48.234;8.344;2024-03-08T14:09:36;10.55;;;7.13;;
37971;SDS011;23794;48.234;8.344;2024-03-08T14:12:09;8.55;;;6.90;;
37971;SDS011;23794;48.234;8.344;2024-03-08T14:14:43;8.93;;;7.30;;
37971;SDS011;23794;48.234;8.344;2024-03-08T14:17:11;9.93;;;7.32;;
37971;SDS011;23794;48.234;8.344;2024-03-08T14:19:46;10.07;;;7.00;;
37971;SDS011;23794;48.234;8.344;2024-03-08T14:22:14;9.35;;;7.47;;
37971;SDS011;23794;48.234;8.344;2024-03-08T14:24:41;11.57;;;8.15;;
37971;SDS011;23794;48.234;8.344;2024-03-08T14:27:10;9.85;;;7.47;;
37971;SDS011;23794;48.234;8.344;2024-03-08T14:29:39;11.57;;;8.13;;
37971;SDS011;23794;48.234;8.344;2024-03-08T14:32:07;9.90;;;7.20;;
37971;SDS011;23794;48.234;8.344;2024-03-08T14:34:35;10.20;;;7.70;;
37971;SDS011;23794;48.234;8.344;2024-03-08T14:37:08;9.63;;;7.40;;
37971;SDS011;23794;48.234;8.344;2024-03-08T14:39:38;11.45;;;7.97;;
37971;SDS011;23794;48.234;8.344;2024-03-08T14:42:09;13.38;;;8.30;;
37971;SDS011;23794;48.234;8.344;2024-03-08T14:44:40;12.05;;;9.00;;
37971;SDS011;23794;48.234;8.344;2024-03-08T14:47:07;12.82;;;8.98;;